createdAt,value
2023-03-11T00:03:31.508Z,33.60
2023-03-11T00:08:32.901Z,33.70
2023-03-11T00:13:34.315Z,33.80
2023-03-11T00:18:35.710Z,33.60
2023-03-11T00:23:37.110Z,33.50
2023-03-11T00:28:38.526Z,33.40
2023-03-11T00:33:39.950Z,33.30
2023-03-11T00:38:41.456Z,33.40
2023-03-11T00:43:42.886Z,33.40
2023-03-11T00:48:44.305Z,33.60
2023-03-11T00:53:45.741Z,33.60
2023-03-11T00:58:47.190Z,33.50
2023-03-11T01:03:48.605Z,33.70
2023-03-11T01:08:50.047Z,34.00
2023-03-11T01:13:51.463Z,34.10
2023-03-11T01:18:52.881Z,34.20
2023-03-11T01:23:54.295Z,34.00
2023-03-11T01:28:55.710Z,33.80
2023-03-11T01:33:57.146Z,33.70
2023-03-11T01:38:58.544Z,33.50
2023-03-11T01:43:59.928Z,33.30
2023-03-11T01:49:01.370Z,33.20
2023-03-11T01:54:02.780Z,33.20
2023-03-11T01:59:04.176Z,33.10
2023-03-11T02:04:05.624Z,33.20
2023-03-11T02:09:07.132Z,33.20
2023-03-11T02:14:08.545Z,33.30
2023-03-11T02:19:09.951Z,33.60
2023-03-11T02:24:11.467Z,33.60
2023-03-11T02:29:12.915Z,33.50
2023-03-11T02:34:14.351Z,33.40
2023-03-11T02:39:15.881Z,33.20
2023-03-11T02:44:17.282Z,32.90
2023-03-11T02:49:18.701Z,32.80
2023-03-11T02:54:20.109Z,32.60
2023-03-11T02:59:21.532Z,32.50
2023-03-11T03:04:23.049Z,33.20
2023-03-11T03:09:24.688Z,32.50
2023-03-11T03:14:26.146Z,32.60
2023-03-11T03:19:27.598Z,32.70
2023-03-11T03:24:29.033Z,32.80
2023-03-11T03:29:30.456Z,33.00
2023-03-11T03:34:31.849Z,32.90
2023-03-11T03:39:33.265Z,32.80
2023-03-11T03:44:34.667Z,32.60
2023-03-11T03:49:36.086Z,32.50
2023-03-11T03:54:37.511Z,32.40
2023-03-11T03:59:38.914Z,32.20
2023-03-11T04:04:40.322Z,32.20
2023-03-11T04:09:41.725Z,32.10
2023-03-11T04:14:43.130Z,32.10
2023-03-11T04:19:44.584Z,32.20
2023-03-11T04:24:46.010Z,32.30
2023-03-11T04:29:47.405Z,32.50
2023-03-11T04:34:48.806Z,32.50
2023-03-11T04:39:50.215Z,32.40
2023-03-11T04:44:51.636Z,32.30
2023-03-11T04:49:53.044Z,32.20
2023-03-11T04:54:54.470Z,32.00
2023-03-11T04:59:55.883Z,31.90
2023-03-11T05:04:57.357Z,31.90
2023-03-11T05:09:58.807Z,31.80
2023-03-11T05:15:00.218Z,31.90
2023-03-11T05:20:01.638Z,32.00
2023-03-11T05:25:03.042Z,32.10
2023-03-11T05:30:04.498Z,32.20
2023-03-11T05:35:05.914Z,32.30
2023-03-11T05:40:07.350Z,32.10
2023-03-11T05:45:08.761Z,31.90
2023-03-11T05:50:10.263Z,31.70
2023-03-11T05:55:11.672Z,31.60
2023-03-11T06:00:13.087Z,31.40
2023-03-11T06:05:14.638Z,31.40
2023-03-11T06:10:16.150Z,31.30
2023-03-11T06:15:17.587Z,31.30
2023-03-11T06:20:19.044Z,31.40
2023-03-11T06:25:20.524Z,31.60
2023-03-11T06:30:21.991Z,31.70
2023-03-11T06:35:23.417Z,31.80
2023-03-11T06:40:24.839Z,31.90
2023-03-11T06:45:26.269Z,31.80
2023-03-11T06:50:27.677Z,31.60
2023-03-11T06:55:29.081Z,31.50
2023-03-11T07:00:30.509Z,31.40
2023-03-11T07:05:32.091Z,31.30
2023-03-11T07:10:33.525Z,31.30
2023-03-11T07:15:34.933Z,31.30
2023-03-11T07:20:36.365Z,31.30
2023-03-11T07:25:37.822Z,31.40
2023-03-11T07:30:39.317Z,31.50
2023-03-11T07:35:40.882Z,31.60
2023-03-11T07:40:42.290Z,31.80
2023-03-11T07:45:43.727Z,31.80
2023-03-11T07:50:45.144Z,31.60
2023-03-11T07:55:46.559Z,31.50
2023-03-11T08:00:47.969Z,31.30
2023-03-11T08:05:49.402Z,31.20
2023-03-11T08:10:50.928Z,31.20
2023-03-11T08:15:52.379Z,31.20
2023-03-11T08:20:53.805Z,31.10
2023-03-11T08:25:55.234Z,31.20
2023-03-11T08:30:56.715Z,31.40
2023-03-11T08:35:58.187Z,31.50
2023-03-11T08:40:59.885Z,31.50
2023-03-11T08:46:01.366Z,31.50
2023-03-11T08:51:02.918Z,31.30
2023-03-11T08:56:04.341Z,31.10
2023-03-11T09:01:05.938Z,31.00
2023-03-11T09:06:07.401Z,31.00
2023-03-11T09:11:08.870Z,31.00
2023-03-11T09:16:10.300Z,30.90
2023-03-11T09:21:11.777Z,31.00
2023-03-11T09:26:13.206Z,31.00
2023-03-11T09:31:14.635Z,31.10
2023-03-11T09:36:16.075Z,31.30
2023-03-11T09:41:17.513Z,31.50
2023-03-11T09:46:18.949Z,31.50
2023-03-11T09:51:20.376Z,31.40
2023-03-11T09:56:21.795Z,31.10
2023-03-11T10:01:23.348Z,30.90
2023-03-11T10:06:24.866Z,30.80
2023-03-11T10:11:26.335Z,30.60
2023-03-11T10:16:27.912Z,30.60
2023-03-11T10:21:29.470Z,30.50
2023-03-11T10:26:30.884Z,30.50
2023-03-11T10:31:32.359Z,30.60
2023-03-11T10:36:33.777Z,30.60
2023-03-11T10:41:35.263Z,30.80
2023-03-11T10:46:36.706Z,31.00
2023-03-11T10:51:38.132Z,31.20
2023-03-11T10:56:39.535Z,31.20
2023-03-11T11:01:40.935Z,31.10
2023-03-11T11:06:42.348Z,30.90
2023-03-11T11:11:43.760Z,30.70
2023-03-11T11:16:47.972Z,31.20
2023-03-11T11:21:49.420Z,31.10
2023-03-11T11:26:50.829Z,30.50
2023-03-11T11:31:52.232Z,30.50
2023-03-11T11:36:53.644Z,30.50
2023-03-11T11:41:55.062Z,30.60
2023-03-11T11:46:56.526Z,30.70
2023-03-11T11:51:57.955Z,30.90
2023-03-11T11:56:59.373Z,31.10
2023-03-11T12:02:00.784Z,31.10
2023-03-11T12:07:02.185Z,31.00
2023-03-11T12:12:03.593Z,30.80
2023-03-11T12:17:04.990Z,31.20
2023-03-11T12:22:06.413Z,30.50
2023-03-11T12:27:07.821Z,30.40
2023-03-11T12:32:09.211Z,30.40
2023-03-11T12:37:10.667Z,30.40
2023-03-11T12:42:12.097Z,30.40
2023-03-11T12:47:13.511Z,30.50
2023-03-11T12:52:14.930Z,30.60
2023-03-11T12:57:16.361Z,30.80
2023-03-11T13:02:17.768Z,31.00
2023-03-11T13:07:19.175Z,31.00
2023-03-11T13:12:20.583Z,30.90
2023-03-11T13:17:21.999Z,30.70
2023-03-11T13:22:23.416Z,30.50
2023-03-11T13:27:24.824Z,30.30
2023-03-11T13:32:26.289Z,30.20
2023-03-11T13:37:27.778Z,30.20
2023-03-11T13:42:29.180Z,30.20
2023-03-11T13:47:30.588Z,30.30
2023-03-11T13:52:31.992Z,30.30
2023-03-11T13:57:33.398Z,30.50
2023-03-11T14:02:34.818Z,30.70
2023-03-11T14:07:36.266Z,30.80
2023-03-11T14:12:37.689Z,30.90
2023-03-11T14:17:39.109Z,30.80
2023-03-11T14:22:40.541Z,30.60
2023-03-11T14:27:41.975Z,30.50
2023-03-11T14:32:43.461Z,30.50
2023-03-11T14:37:44.885Z,30.40
2023-03-11T14:42:47.346Z,30.30
2023-03-11T14:47:48.776Z,30.30
2023-03-11T14:52:50.186Z,30.30
2023-03-11T14:57:51.595Z,30.60
2023-03-11T15:02:53.080Z,30.70
2023-03-11T15:07:54.484Z,30.90
2023-03-11T15:12:55.891Z,30.80
2023-03-11T15:17:57.300Z,31.40
2023-03-11T15:22:58.784Z,30.70
2023-03-11T15:28:00.223Z,30.40
2023-03-11T15:33:01.639Z,30.40
2023-03-11T15:38:03.047Z,30.30
2023-03-11T15:43:04.453Z,30.40
2023-03-11T15:48:05.875Z,30.30
2023-03-11T15:53:07.290Z,30.30
2023-03-11T15:58:08.690Z,30.40
2023-03-11T16:03:10.096Z,30.60
2023-03-11T16:08:11.537Z,30.60
2023-03-11T16:13:12.943Z,30.80
2023-03-11T16:18:14.367Z,30.80
2023-03-11T16:23:15.800Z,30.60
2023-03-11T16:28:17.217Z,30.40
2023-03-11T16:33:18.620Z,30.30
2023-03-11T16:38:20.072Z,30.10
2023-03-11T16:43:21.476Z,30.10
2023-03-11T16:48:22.877Z,30.10
2023-03-11T16:53:24.278Z,30.10
2023-03-11T16:58:25.684Z,30.20
2023-03-11T17:03:31.552Z,30.40
2023-03-11T17:08:35.979Z,30.40
2023-03-11T17:13:37.403Z,30.60
2023-03-11T17:18:38.809Z,30.70
2023-03-11T17:23:40.256Z,30.50
2023-03-11T17:28:41.662Z,30.30
2023-03-11T17:33:43.087Z,30.30
2023-03-11T17:38:44.546Z,30.20
2023-03-11T17:43:45.999Z,30.10
2023-03-11T17:48:47.418Z,30.00
2023-03-11T17:53:48.864Z,30.10
2023-03-11T17:58:50.268Z,30.20
2023-03-11T18:03:51.728Z,30.40
2023-03-11T18:08:53.178Z,30.40
2023-03-11T18:13:54.581Z,30.60
2023-03-11T18:18:55.987Z,30.50
2023-03-11T18:23:57.495Z,30.40
2023-03-11T18:28:58.940Z,30.10
2023-03-11T18:34:00.354Z,30.00
2023-03-11T18:39:01.782Z,30.00
2023-03-11T18:44:03.206Z,30.00
2023-03-11T18:49:04.653Z,30.60
2023-03-11T18:54:06.050Z,30.00
2023-03-11T18:59:07.466Z,30.10
2023-03-11T19:04:11.687Z,30.30
2023-03-11T19:09:13.102Z,30.20
2023-03-11T19:14:14.516Z,30.40
2023-03-11T19:19:15.930Z,30.30
2023-03-11T19:24:17.360Z,30.10
2023-03-11T19:29:18.790Z,30.00
2023-03-11T19:34:20.203Z,30.00
2023-03-11T19:39:21.623Z,30.00
2023-03-11T19:44:23.077Z,30.00
2023-03-11T19:49:24.523Z,30.00
2023-03-11T19:54:25.956Z,30.00
2023-03-11T19:59:27.372Z,30.10
2023-03-11T20:04:28.857Z,30.20
2023-03-11T20:09:30.357Z,30.30
2023-03-11T20:14:31.824Z,30.20
2023-03-11T20:19:33.261Z,30.30
2023-03-11T20:24:34.758Z,30.00
2023-03-11T20:29:36.186Z,30.00
2023-03-11T20:34:37.620Z,30.00
2023-03-11T20:39:39.134Z,30.00
2023-03-11T20:44:40.573Z,30.00
2023-03-11T20:49:42.075Z,29.90
2023-03-11T20:54:43.574Z,30.00
2023-03-11T20:59:45.018Z,30.10
2023-03-11T21:04:46.493Z,30.20
2023-03-11T21:09:47.918Z,30.30
2023-03-11T21:14:49.374Z,30.00
2023-03-11T21:19:50.828Z,30.00
2023-03-11T21:24:52.237Z,30.00
2023-03-11T21:29:53.814Z,30.00
2023-03-11T21:34:55.221Z,29.90
2023-03-11T21:39:56.705Z,29.90
2023-03-11T21:44:58.181Z,30.00
2023-03-11T21:49:59.788Z,30.00
2023-03-11T21:55:01.205Z,30.10
2023-03-11T22:00:02.633Z,30.20
2023-03-11T22:05:04.317Z,30.10
2023-03-11T22:10:05.754Z,30.00
2023-03-11T22:15:07.299Z,30.00
2023-03-11T22:20:08.796Z,30.00
2023-03-11T22:25:10.204Z,30.00
2023-03-11T22:30:11.617Z,30.00
2023-03-11T22:35:13.015Z,30.60
2023-03-11T22:40:14.426Z,30.00
2023-03-11T22:45:15.850Z,30.20
2023-03-11T22:50:17.314Z,30.30
2023-03-11T22:55:18.725Z,30.30
2023-03-11T23:00:20.153Z,30.10
2023-03-11T23:05:21.578Z,30.00
2023-03-11T23:10:23.133Z,30.00
2023-03-11T23:15:24.597Z,29.90
2023-03-11T23:20:26.011Z,29.90
2023-03-11T23:25:27.424Z,29.80
2023-03-11T23:30:28.831Z,29.80
2023-03-11T23:35:30.341Z,29.90
2023-03-11T23:40:31.826Z,30.00
2023-03-11T23:45:33.252Z,30.00
2023-03-11T23:50:34.674Z,30.20
2023-03-11T23:55:36.076Z,30.20
